KPNE/PNE METAR and TAF weather

Enter ICAO airport designator
Station Type Date Time Source
KPNE METAR 2021/01/22 05:54 UTC NOAA

KPNE 220554Z AUTO 24007KT 10SM BKN070 03/M04 A2966 RMK AO2 SLP044 T00331039 10033 21017 51001


Station Type Date Time Source
KPNE Decoded METAR 2021/01/22 05:54 UTC NOAA

N.E. PHILADELPHIA AIRPORT, PA, United States (KPNE) 40-05N 075-01W 28M
Jan 22, 2021 - 12:54 AM EST / 2021.01.22 0554 UTC
Wind: from the WSW (240 degrees) at 8 MPH (7 KT):0
Visibility: 10 mile(s):0
Sky conditions: mostly cloudy
Temperature: 37.9 F (3.3 C)
Dew Point: 25.0 F (-3.9 C)
Relative Humidity: 59%
Pressure (altimeter): 29.66 in. Hg (1004 hPa)
Pressure tendency: 0.00 inches (0.1 hPa) higher than three hours ago
ob: KPNE 220554Z AUTO 24007KT 10SM BKN070 03/M04 A2966 RMK AO2 SLP044 T00331039 10033 21017 51001
cycle: 6

Station Type Date Time Source
KPNE TAF 2021/01/22 06:34 UTC NOAA

TAF KPNE 220532Z 2206/2306 24004KT P6SM SCT060
FM221500 28012G20KT P6SM SCT045
FM222000 29013G23KT P6SM BKN060
FM222300 29010KT P6SM SCT050

Example: see airport list